createdAt,value
2022-12-14T00:00:42.751Z,282.60
2022-12-14T00:03:54.831Z,271.90
2022-12-14T00:06:58.090Z,281.80
2022-12-14T00:10:01.141Z,304.10
2022-12-14T00:13:06.494Z,295.20
2022-12-14T00:16:15.066Z,285.50
2022-12-14T00:19:18.252Z,262.20
2022-12-14T00:22:21.246Z,240.50
2022-12-14T00:25:25.292Z,248.20
2022-12-14T00:28:28.912Z,232.10
2022-12-14T00:31:32.756Z,238.50
2022-12-14T00:34:35.914Z,234.70
2022-12-14T00:37:39.457Z,222.50
2022-12-14T00:40:42.878Z,232.90
2022-12-14T00:43:49.218Z,206.30
2022-12-14T00:46:52.782Z,210.80
2022-12-14T00:49:55.843Z,217.10
2022-12-14T00:52:58.863Z,200.90
2022-12-14T00:56:06.950Z,204.60
2022-12-14T00:59:09.939Z,207.70
2022-12-14T01:02:12.982Z,203.50
2022-12-14T01:05:49.088Z,167.10
2022-12-14T01:08:52.668Z,130.80
2022-12-14T01:11:55.840Z,127.00
2022-12-14T01:14:58.915Z,140.70
2022-12-14T01:18:01.953Z,132.90
2022-12-14T01:21:12.996Z,127.80
2022-12-14T01:24:16.021Z,125.60
2022-12-14T01:27:19.039Z,126.40
2022-12-14T01:30:22.044Z,119.20
2022-12-14T01:33:25.364Z,122.50
2022-12-14T01:36:31.269Z,118.30
2022-12-14T01:39:34.271Z,106.70
2022-12-14T01:42:37.822Z,112.50
2022-12-14T01:45:43.247Z,115.20
2022-12-14T01:48:47.048Z,105.40
2022-12-14T01:51:57.987Z,101.70
2022-12-14T01:55:07.063Z,94.90
2022-12-14T01:58:16.242Z,91.30
2022-12-14T02:01:19.452Z,90.40
2022-12-14T02:04:22.965Z,92.00
2022-12-14T02:07:29.618Z,94.30
2022-12-14T02:10:32.879Z,104.20
2022-12-14T02:13:40.630Z,103.80
2022-12-14T02:16:43.716Z,104.10
2022-12-14T02:19:49.411Z,101.30
2022-12-14T02:22:55.602Z,110.90
2022-12-14T02:26:33.990Z,110.20
2022-12-14T02:29:58.097Z,107.80
2022-12-14T02:33:44.515Z,102.60
2022-12-14T02:37:03.005Z,101.00
2022-12-14T02:40:28.013Z,91.20
2022-12-14T02:43:49.608Z,87.10
2022-12-14T02:47:26.196Z,92.60
2022-12-14T02:50:58.069Z,87.30
2022-12-14T02:54:13.001Z,88.40
2022-12-14T02:57:25.442Z,83.20
2022-12-14T03:00:32.458Z,83.40
2022-12-14T03:03:35.544Z,74.40
2022-12-14T03:06:38.618Z,70.60
2022-12-14T03:09:41.592Z,78.60
2022-12-14T03:12:50.809Z,77.00
2022-12-14T03:16:19.797Z,72.50
2022-12-14T03:19:39.725Z,73.80
2022-12-14T03:22:51.946Z,71.60
2022-12-14T03:26:09.749Z,60.60
2022-12-14T03:29:25.395Z,69.00
2022-12-14T03:32:31.513Z,72.10
2022-12-14T03:35:39.859Z,77.80
2022-12-14T03:38:45.454Z,67.80
2022-12-14T03:42:02.712Z,67.50
2022-12-14T03:45:41.117Z,65.00
2022-12-14T03:48:56.334Z,74.10
2022-12-14T03:52:17.710Z,67.90
2022-12-14T03:55:20.726Z,73.00
2022-12-14T03:58:26.709Z,66.50
2022-12-14T04:01:46.550Z,71.30
2022-12-14T04:05:00.668Z,66.90
2022-12-14T04:08:20.775Z,69.40
2022-12-14T04:11:46.703Z,60.00
2022-12-14T04:15:21.695Z,70.00
2022-12-14T04:18:55.710Z,64.80
2022-12-14T04:22:07.583Z,66.80
2022-12-14T04:25:37.421Z,61.80
2022-12-14T04:29:10.333Z,59.10
2022-12-14T04:32:15.474Z,60.60
2022-12-14T04:35:29.313Z,56.70
2022-12-14T04:38:36.460Z,51.70
2022-12-14T04:41:45.272Z,52.00
2022-12-14T04:44:53.696Z,58.10
2022-12-14T04:48:29.179Z,59.00
2022-12-14T04:52:07.407Z,54.50
2022-12-14T04:55:10.510Z,58.30
2022-12-14T04:58:22.468Z,54.60
2022-12-14T05:02:13.089Z,59.80
2022-12-14T05:05:44.721Z,56.40
2022-12-14T05:09:02.779Z,63.20
2022-12-14T05:12:16.044Z,57.60
2022-12-14T05:15:23.846Z,62.70
2022-12-14T05:18:27.074Z,64.20
2022-12-14T05:21:48.909Z,59.70
2022-12-14T05:24:51.956Z,53.10
2022-12-14T05:27:54.976Z,50.10
2022-12-14T05:30:57.980Z,51.30
2022-12-14T05:34:01.138Z,53.30
2022-12-14T05:37:04.373Z,54.70
2022-12-14T05:40:08.605Z,50.80
2022-12-14T05:43:12.405Z,54.10
2022-12-14T05:46:15.501Z,52.20
2022-12-14T05:49:18.616Z,53.10
2022-12-14T05:52:25.837Z,52.40
2022-12-14T05:55:28.846Z,52.20
2022-12-14T05:58:32.778Z,46.30
2022-12-14T06:01:35.824Z,52.00
2022-12-14T06:04:39.143Z,51.10
2022-12-14T06:07:42.279Z,58.20
2022-12-14T06:10:45.204Z,59.40
2022-12-14T06:13:49.308Z,53.60
2022-12-14T06:16:52.393Z,57.00
2022-12-14T06:19:55.351Z,62.30
2022-12-14T06:22:58.382Z,62.80
2022-12-14T06:26:01.439Z,56.00
2022-12-14T06:29:04.756Z,54.00
2022-12-14T06:32:07.745Z,47.70
2022-12-14T06:35:10.742Z,47.50
2022-12-14T06:38:15.132Z,44.80
2022-12-14T06:41:18.764Z,47.70
2022-12-14T06:44:21.824Z,47.70
2022-12-14T06:47:25.866Z,45.00
2022-12-14T06:50:28.834Z,45.70
2022-12-14T06:53:32.713Z,43.10
2022-12-14T06:56:36.983Z,45.30
2022-12-14T06:59:40.027Z,40.70
2022-12-14T07:02:43.249Z,45.10
2022-12-14T07:05:49.092Z,41.30
2022-12-14T07:08:59.140Z,46.30
2022-12-14T07:12:02.175Z,33.70
2022-12-14T07:15:05.706Z,43.70
2022-12-14T07:18:08.688Z,44.50
2022-12-14T07:21:15.577Z,43.40
2022-12-14T07:24:18.729Z,44.10
2022-12-14T07:27:21.798Z,44.90
2022-12-14T07:30:24.793Z,39.80
2022-12-14T07:33:29.088Z,41.70
2022-12-14T07:36:33.105Z,42.90
2022-12-14T07:39:36.283Z,44.40
2022-12-14T07:42:39.297Z,46.60
2022-12-14T07:45:46.131Z,48.70
2022-12-14T07:48:52.203Z,43.10
2022-12-14T07:51:55.250Z,44.00
2022-12-14T07:54:58.267Z,47.80
2022-12-14T07:58:02.478Z,44.70
2022-12-14T08:01:14.059Z,48.30
2022-12-14T08:04:20.250Z,51.40
2022-12-14T08:07:23.471Z,51.60
2022-12-14T08:10:26.634Z,47.50
2022-12-14T08:13:30.669Z,49.00
2022-12-14T08:16:34.292Z,53.30
2022-12-14T08:19:37.387Z,53.90
2022-12-14T08:22:40.485Z,53.80
2022-12-14T08:25:44.118Z,53.20
2022-12-14T08:28:48.779Z,52.00
2022-12-14T08:31:56.045Z,55.80
2022-12-14T08:34:59.219Z,53.60
2022-12-14T08:38:03.081Z,54.20
2022-12-14T08:41:11.442Z,54.30
2022-12-14T08:44:17.197Z,58.90
2022-12-14T08:47:20.323Z,59.90
2022-12-14T08:50:23.589Z,63.30
2022-12-14T08:53:27.056Z,65.00
2022-12-14T08:56:30.468Z,57.20
2022-12-14T09:00:00.074Z,63.60
2022-12-14T09:02:56.646Z,67.10
2022-12-14T09:06:06.917Z,61.70
2022-12-14T09:09:16.109Z,67.80
2022-12-14T09:12:20.802Z,63.30
2022-12-14T09:15:23.861Z,63.20
2022-12-14T09:18:28.001Z,62.00
2022-12-14T09:21:49.700Z,65.30
2022-12-14T09:24:52.856Z,62.40
2022-12-14T09:27:55.913Z,60.30
2022-12-14T09:31:04.385Z,62.10
2022-12-14T09:34:07.852Z,51.50
2022-12-14T09:37:10.982Z,53.20
2022-12-14T09:40:14.475Z,52.30
2022-12-14T09:43:44.977Z,48.20
2022-12-14T09:47:12.010Z,47.60
2022-12-14T09:50:19.217Z,46.30
2022-12-14T09:53:23.149Z,44.50
2022-12-14T09:56:26.647Z,57.40
2022-12-14T09:59:31.922Z,53.30
2022-12-14T10:02:46.207Z,49.20
2022-12-14T10:06:11.459Z,59.10
2022-12-14T10:09:34.836Z,56.40
2022-12-14T10:13:19.643Z,52.50
2022-12-14T10:16:35.391Z,52.90
2022-12-14T10:19:56.016Z,50.90
2022-12-14T10:23:02.154Z,49.50
2022-12-14T10:26:09.728Z,50.50
2022-12-14T10:29:28.206Z,46.60
2022-12-14T10:32:39.753Z,52.40
2022-12-14T10:35:54.575Z,49.30
2022-12-14T10:38:59.179Z,54.70
2022-12-14T10:42:10.967Z,46.00
2022-12-14T10:45:41.118Z,44.40
2022-12-14T10:49:16.420Z,41.20
2022-12-14T10:52:23.494Z,37.90
2022-12-14T10:55:34.877Z,39.90
2022-12-14T10:58:37.910Z,43.80
2022-12-14T11:01:44.142Z,47.60
2022-12-14T11:04:56.511Z,49.40
2022-12-14T11:11:18.894Z,35.20
2022-12-14T11:14:23.551Z,46.40
2022-12-14T11:17:31.166Z,42.80
2022-12-14T11:20:34.583Z,44.50
2022-12-14T11:23:48.301Z,48.70
2022-12-14T11:26:59.249Z,41.00
2022-12-14T11:30:04.984Z,46.50
2022-12-14T11:33:16.935Z,53.90
2022-12-14T11:36:40.193Z,51.30
2022-12-14T11:39:43.587Z,43.70
2022-12-14T11:42:51.582Z,45.30
2022-12-14T11:45:57.171Z,40.90
2022-12-14T11:49:00.377Z,40.60
2022-12-14T11:52:06.228Z,40.00
2022-12-14T11:55:26.159Z,44.70
2022-12-14T11:58:34.756Z,44.50
2022-12-14T12:01:38.080Z,50.20
2022-12-14T12:04:49.200Z,49.70
2022-12-14T12:07:58.239Z,50.40
2022-12-14T12:11:05.118Z,51.90
2022-12-14T12:14:29.008Z,51.40
2022-12-14T12:17:43.511Z,40.80
2022-12-14T12:21:10.144Z,45.30
2022-12-14T12:24:21.447Z,41.60
2022-12-14T12:27:25.954Z,30.70
2022-12-14T12:30:34.409Z,39.10
2022-12-14T12:33:44.885Z,40.00
2022-12-14T12:37:24.148Z,36.90
2022-12-14T12:40:46.967Z,36.80
2022-12-14T12:43:56.046Z,37.50
2022-12-14T12:47:29.934Z,39.20
2022-12-14T12:50:49.975Z,32.20
2022-12-14T12:53:59.953Z,35.90
2022-12-14T12:57:07.230Z,34.40
2022-12-14T13:00:18.316Z,43.40
2022-12-14T13:03:45.314Z,36.90
2022-12-14T13:06:57.649Z,42.60
2022-12-14T13:13:24.223Z,37.70
2022-12-14T13:16:33.622Z,44.40
2022-12-14T13:19:52.073Z,40.70
2022-12-14T13:23:05.696Z,37.00
2022-12-14T13:26:57.198Z,34.60
2022-12-14T13:30:23.537Z,35.10
2022-12-14T13:33:35.629Z,36.30
2022-12-14T13:36:51.214Z,34.90
2022-12-14T13:40:12.340Z,37.70
2022-12-14T13:43:34.384Z,32.70
2022-12-14T13:46:38.676Z,34.60
2022-12-14T13:50:11.348Z,36.40
2022-12-14T13:53:40.329Z,37.80
2022-12-14T13:56:44.631Z,43.00
2022-12-14T13:59:54.565Z,47.00
2022-12-14T14:03:01.168Z,45.90
2022-12-14T14:06:18.596Z,53.20
2022-12-14T14:09:33.549Z,46.60
2022-12-14T14:12:44.114Z,45.90
2022-12-14T14:16:26.945Z,54.20
2022-12-14T14:19:25.846Z,52.10
2022-12-14T14:22:32.184Z,48.20
2022-12-14T14:25:46.571Z,50.10
2022-12-14T14:29:32.724Z,52.70
2022-12-14T14:32:40.271Z,47.00
2022-12-14T14:35:43.776Z,39.20
2022-12-14T14:38:47.483Z,50.10
2022-12-14T14:41:53.289Z,43.40
2022-12-14T14:45:02.860Z,45.40
2022-12-14T14:48:50.420Z,46.60
2022-12-14T14:51:57.041Z,44.80
2022-12-14T14:55:54.071Z,43.10
2022-12-14T14:59:21.354Z,43.20
2022-12-14T15:02:39.470Z,41.00
2022-12-14T15:05:43.691Z,47.70
2022-12-14T15:08:54.123Z,44.80
2022-12-14T15:12:04.977Z,46.50
2022-12-14T15:15:27.016Z,42.80
2022-12-14T15:18:32.220Z,42.20
2022-12-14T15:21:37.594Z,43.00
2022-12-14T15:24:43.999Z,42.00
2022-12-14T15:27:47.906Z,41.50
2022-12-14T15:30:51.147Z,49.30
2022-12-14T15:33:54.947Z,45.00
2022-12-14T15:36:57.985Z,52.00
2022-12-14T15:40:23.067Z,52.70
2022-12-14T15:43:28.139Z,55.90
2022-12-14T15:46:34.756Z,51.60
2022-12-14T15:49:38.022Z,50.00
2022-12-14T15:52:42.748Z,48.00
2022-12-14T15:56:00.320Z,46.80
2022-12-14T15:59:14.119Z,43.00
2022-12-14T16:02:31.376Z,48.10
2022-12-14T16:05:35.809Z,61.10
2022-12-14T16:09:03.158Z,51.50
2022-12-14T16:12:44.173Z,50.30
2022-12-14T16:15:49.437Z,46.80
2022-12-14T16:18:53.620Z,46.30
2022-12-14T16:22:10.353Z,47.80
2022-12-14T16:25:19.999Z,48.20
2022-12-14T16:28:32.169Z,50.10
2022-12-14T16:31:38.029Z,50.60
2022-12-14T16:34:58.933Z,50.70
2022-12-14T16:38:08.804Z,47.40
2022-12-14T16:41:12.001Z,46.60
2022-12-14T16:44:36.959Z,49.40
2022-12-14T16:48:06.675Z,49.90
2022-12-14T16:52:05.786Z,53.80
2022-12-14T16:55:15.344Z,41.40
2022-12-14T16:58:18.825Z,41.50
2022-12-14T17:01:23.638Z,43.30
2022-12-14T17:04:35.111Z,46.60
2022-12-14T17:07:38.734Z,33.80
2022-12-14T17:10:41.865Z,60.90
2022-12-14T17:13:45.319Z,57.00
2022-12-14T17:17:02.307Z,58.00
2022-12-14T17:20:14.101Z,62.30
2022-12-14T17:23:18.983Z,67.00
2022-12-14T17:26:32.814Z,70.00
2022-12-14T17:29:36.496Z,66.00
2022-12-14T17:32:39.583Z,65.30
2022-12-14T17:35:43.585Z,61.10
2022-12-14T17:38:47.216Z,46.60
2022-12-14T17:41:51.186Z,52.00
2022-12-14T17:44:58.441Z,55.50
2022-12-14T17:48:02.191Z,59.30
2022-12-14T17:51:06.540Z,58.80
2022-12-14T17:54:19.883Z,60.50
2022-12-14T17:57:27.186Z,55.10
2022-12-14T18:00:49.951Z,62.60
2022-12-14T18:03:53.875Z,57.20
2022-12-14T18:06:57.819Z,63.30
2022-12-14T18:10:02.499Z,54.70
2022-12-14T18:13:05.634Z,55.30
2022-12-14T18:16:18.100Z,66.00
2022-12-14T18:19:22.470Z,58.40
2022-12-14T18:22:26.621Z,61.20
2022-12-14T18:25:37.333Z,60.90
2022-12-14T18:28:42.802Z,61.70
2022-12-14T18:31:46.471Z,62.60
2022-12-14T18:34:52.769Z,63.10
2022-12-14T18:37:56.390Z,69.40
2022-12-14T18:41:01.914Z,74.50
2022-12-14T18:44:05.438Z,79.50
2022-12-14T18:47:33.626Z,69.70
2022-12-14T18:50:32.894Z,66.40
2022-12-14T18:53:36.475Z,60.70
2022-12-14T18:56:42.188Z,61.30
2022-12-14T18:59:45.298Z,58.40
2022-12-14T19:02:49.840Z,57.80
2022-12-14T19:06:26.830Z,65.70
2022-12-14T19:09:26.264Z,61.80
2022-12-14T19:12:29.396Z,56.20
2022-12-14T19:15:35.070Z,59.20
2022-12-14T19:18:38.613Z,59.60
2022-12-14T19:21:41.633Z,61.10
2022-12-14T19:24:49.151Z,71.90
2022-12-14T19:31:18.573Z,66.90
2022-12-14T19:34:21.854Z,73.70
2022-12-14T19:37:25.012Z,78.00
2022-12-14T19:40:28.024Z,70.10
2022-12-14T19:43:31.802Z,72.60
2022-12-14T19:46:35.158Z,74.70
2022-12-14T19:49:38.279Z,76.00
2022-12-14T19:52:42.381Z,72.40
2022-12-14T19:55:52.438Z,73.00
2022-12-14T19:58:57.826Z,78.70
2022-12-14T20:02:02.336Z,75.00
2022-12-14T20:05:06.497Z,71.80
2022-12-14T20:08:09.574Z,82.90
2022-12-14T20:11:12.585Z,81.30
2022-12-14T20:14:15.699Z,80.80
2022-12-14T20:17:19.236Z,81.10
2022-12-14T20:20:23.123Z,78.50
2022-12-14T20:23:26.206Z,80.80
2022-12-14T20:26:29.845Z,81.60
2022-12-14T20:29:33.704Z,81.10
2022-12-14T20:32:36.896Z,83.90
2022-12-14T20:35:39.896Z,89.00
2022-12-14T20:38:42.931Z,87.00
2022-12-14T20:41:46.047Z,83.60
2022-12-14T20:44:49.447Z,87.90
2022-12-14T20:47:53.819Z,86.50
2022-12-14T20:51:01.974Z,87.40
2022-12-14T20:54:08.021Z,85.40
2022-12-14T20:57:11.141Z,85.30
2022-12-14T21:00:14.946Z,86.10
2022-12-14T21:03:18.027Z,91.50
2022-12-14T21:06:22.887Z,90.60
2022-12-14T21:09:26.068Z,91.00
2022-12-14T21:12:29.078Z,93.40
2022-12-14T21:15:32.022Z,96.20
2022-12-14T21:18:35.064Z,100.30
2022-12-14T21:21:38.602Z,106.60
2022-12-14T21:25:02.573Z,101.60
2022-12-14T21:28:05.336Z,100.00
2022-12-14T21:31:09.180Z,99.10
2022-12-14T21:34:17.671Z,98.90
2022-12-14T21:37:20.995Z,96.20
2022-12-14T21:40:42.872Z,97.60
2022-12-14T21:43:46.052Z,74.60
2022-12-14T21:46:49.236Z,90.10
2022-12-14T21:49:53.029Z,88.10
2022-12-14T21:52:56.584Z,84.50
2022-12-14T21:56:19.753Z,90.10
2022-12-14T21:59:28.990Z,85.10
2022-12-14T22:02:32.148Z,82.80
2022-12-14T22:05:38.979Z,86.70
2022-12-14T22:08:42.074Z,88.00
2022-12-14T22:11:45.923Z,96.10
2022-12-14T22:14:50.103Z,89.80
2022-12-14T22:17:53.166Z,93.20
2022-12-14T22:21:03.629Z,93.80
2022-12-14T22:24:07.607Z,88.60
2022-12-14T22:27:13.660Z,96.60
2022-12-14T22:30:16.723Z,93.90
2022-12-14T22:33:19.801Z,89.00
2022-12-14T22:36:23.632Z,87.00
2022-12-14T22:39:26.681Z,95.80
2022-12-14T22:42:29.658Z,83.40
2022-12-14T22:45:35.030Z,83.90
2022-12-14T22:48:38.564Z,82.10
2022-12-14T22:51:41.572Z,84.90
2022-12-14T22:54:44.595Z,82.30
2022-12-14T22:57:53.816Z,81.00
2022-12-14T23:00:56.952Z,80.10
2022-12-14T23:04:00.362Z,86.00
2022-12-14T23:07:04.214Z,89.10
2022-12-14T23:10:26.054Z,89.80
2022-12-14T23:13:47.732Z,85.20
2022-12-14T23:17:09.492Z,96.50
2022-12-14T23:20:31.178Z,95.40
2022-12-14T23:23:52.899Z,102.70
2022-12-14T23:27:15.384Z,101.30
2022-12-14T23:30:37.222Z,99.90
2022-12-14T23:33:58.874Z,103.90
2022-12-14T23:37:20.886Z,98.50
2022-12-14T23:40:42.988Z,98.40
2022-12-14T23:44:05.606Z,99.40
2022-12-14T23:47:27.155Z,99.40
2022-12-14T23:50:48.452Z,101.50
2022-12-14T23:54:09.816Z,94.20
2022-12-14T23:57:31.411Z,95.00
